sensor_id;sensor_type;location;lat;lon;timestamp;P1;durP1;ratioP1;P2;durP2;ratioP2
8572;SDS011;4324;42.012;24.872;2023-04-01T00:01:31;11.73;;;8.63;;
8572;SDS011;4324;42.012;24.872;2023-04-01T00:03:59;11.87;;;8.77;;
8572;SDS011;4324;42.012;24.872;2023-04-01T00:06:27;9.10;;;8.03;;
8572;SDS011;4324;42.012;24.872;2023-04-01T00:08:55;10.97;;;8.80;;
8572;SDS011;4324;42.012;24.872;2023-04-01T00:11:21;11.37;;;7.87;;
8572;SDS011;4324;42.012;24.872;2023-04-01T00:13:49;14.97;;;8.47;;
8572;SDS011;4324;42.012;24.872;2023-04-01T00:16:15;8.67;;;7.50;;
8572;SDS011;4324;42.012;24.872;2023-04-01T00:18:42;11.90;;;7.80;;
8572;SDS011;4324;42.012;24.872;2023-04-01T00:21:11;10.80;;;7.93;;
8572;SDS011;4324;42.012;24.872;2023-04-01T00:23:37;9.73;;;8.50;;
8572;SDS011;4324;42.012;24.872;2023-04-01T00:26:04;11.43;;;8.20;;
8572;SDS011;4324;42.012;24.872;2023-04-01T00:28:31;9.87;;;8.10;;
8572;SDS011;4324;42.012;24.872;2023-04-01T00:31:03;14.63;;;8.03;;
8572;SDS011;4324;42.012;24.872;2023-04-01T00:33:31;12.73;;;7.97;;
8572;SDS011;4324;42.012;24.872;2023-04-01T00:36:05;11.47;;;8.50;;
8572;SDS011;4324;42.012;24.872;2023-04-01T00:38:35;10.50;;;8.67;;
8572;SDS011;4324;42.012;24.872;2023-04-01T00:41:02;11.03;;;8.20;;
8572;SDS011;4324;42.012;24.872;2023-04-01T00:43:30;9.43;;;7.93;;
8572;SDS011;4324;42.012;24.872;2023-04-01T00:45:57;11.50;;;8.97;;
8572;SDS011;4324;42.012;24.872;2023-04-01T00:48:26;13.97;;;10.83;;
8572;SDS011;4324;42.012;24.872;2023-04-01T00:50:58;14.23;;;11.07;;
8572;SDS011;4324;42.012;24.872;2023-04-01T00:53:28;14.50;;;11.03;;
8572;SDS011;4324;42.012;24.872;2023-04-01T00:56:00;14.47;;;8.93;;
8572;SDS011;4324;42.012;24.872;2023-04-01T00:58:29;10.33;;;7.83;;
8572;SDS011;4324;42.012;24.872;2023-04-01T01:00:59;10.83;;;7.03;;
8572;SDS011;4324;42.012;24.872;2023-04-01T01:03:27;9.43;;;6.97;;
8572;SDS011;4324;42.012;24.872;2023-04-01T01:06:00;12.50;;;7.13;;
8572;SDS011;4324;42.012;24.872;2023-04-01T01:11:50;11.43;;;7.00;;
8572;SDS011;4324;42.012;24.872;2023-04-01T01:14:29;8.33;;;6.73;;
8572;SDS011;4324;42.012;24.872;2023-04-01T01:17:08;11.27;;;9.03;;
8572;SDS011;4324;42.012;24.872;2023-04-01T01:22:52;11.07;;;8.53;;
8572;SDS011;4324;42.012;24.872;2023-04-01T01:25:33;13.70;;;8.63;;
8572;SDS011;4324;42.012;24.872;2023-04-01T01:28:19;11.60;;;8.70;;
8572;SDS011;4324;42.012;24.872;2023-04-01T01:31:02;13.77;;;8.60;;
8572;SDS011;4324;42.012;24.872;2023-04-01T01:33:41;9.60;;;8.60;;
8572;SDS011;4324;42.012;24.872;2023-04-01T01:36:18;10.37;;;8.00;;
8572;SDS011;4324;42.012;24.872;2023-04-01T01:38:47;12.03;;;8.27;;
8572;SDS011;4324;42.012;24.872;2023-04-01T01:41:17;11.40;;;8.67;;
8572;SDS011;4324;42.012;24.872;2023-04-01T01:43:47;10.13;;;8.53;;
8572;SDS011;4324;42.012;24.872;2023-04-01T01:46:17;9.03;;;8.13;;
8572;SDS011;4324;42.012;24.872;2023-04-01T01:48:49;8.53;;;7.60;;
8572;SDS011;4324;42.012;24.872;2023-04-01T01:51:19;9.37;;;7.80;;
8572;SDS011;4324;42.012;24.872;2023-04-01T01:53:48;12.03;;;8.47;;
8572;SDS011;4324;42.012;24.872;2023-04-01T01:56:15;11.90;;;7.77;;
8572;SDS011;4324;42.012;24.872;2023-04-01T01:58:47;8.83;;;7.50;;
8572;SDS011;4324;42.012;24.872;2023-04-01T02:01:18;8.37;;;7.50;;
8572;SDS011;4324;42.012;24.872;2023-04-01T02:03:48;8.20;;;6.73;;
8572;SDS011;4324;42.012;24.872;2023-04-01T02:06:19;7.93;;;6.83;;
8572;SDS011;4324;42.012;24.872;2023-04-01T02:08:50;8.37;;;7.50;;
8572;SDS011;4324;42.012;24.872;2023-04-01T02:11:22;7.73;;;6.93;;
8572;SDS011;4324;42.012;24.872;2023-04-01T02:13:54;8.57;;;6.47;;
8572;SDS011;4324;42.012;24.872;2023-04-01T02:16:27;12.37;;;6.77;;
8572;SDS011;4324;42.012;24.872;2023-04-01T02:18:58;9.30;;;6.03;;
8572;SDS011;4324;42.012;24.872;2023-04-01T02:21:30;7.10;;;6.40;;
8572;SDS011;4324;42.012;24.872;2023-04-01T02:23:58;9.17;;;6.73;;
8572;SDS011;4324;42.012;24.872;2023-04-01T02:26:28;10.17;;;7.43;;
8572;SDS011;4324;42.012;24.872;2023-04-01T02:28:55;7.93;;;7.03;;
8572;SDS011;4324;42.012;24.872;2023-04-01T02:31:25;10.07;;;7.17;;
8572;SDS011;4324;42.012;24.872;2023-04-01T02:33:52;8.13;;;6.57;;
8572;SDS011;4324;42.012;24.872;2023-04-01T02:36:20;8.53;;;6.63;;
8572;SDS011;4324;42.012;24.872;2023-04-01T02:38:49;7.70;;;6.30;;
8572;SDS011;4324;42.012;24.872;2023-04-01T02:41:19;6.00;;;5.40;;
8572;SDS011;4324;42.012;24.872;2023-04-01T02:43:47;9.77;;;6.30;;
8572;SDS011;4324;42.012;24.872;2023-04-01T02:46:14;6.60;;;5.90;;
8572;SDS011;4324;42.012;24.872;2023-04-01T02:48:41;6.97;;;5.70;;
8572;SDS011;4324;42.012;24.872;2023-04-01T02:51:08;9.20;;;6.73;;
8572;SDS011;4324;42.012;24.872;2023-04-01T02:53:35;7.03;;;6.43;;
8572;SDS011;4324;42.012;24.872;2023-04-01T02:56:03;7.13;;;6.40;;
8572;SDS011;4324;42.012;24.872;2023-04-01T02:58:31;7.17;;;6.47;;
8572;SDS011;4324;42.012;24.872;2023-04-01T03:00:57;7.23;;;6.47;;
8572;SDS011;4324;42.012;24.872;2023-04-01T03:03:24;7.67;;;6.87;;
8572;SDS011;4324;42.012;24.872;2023-04-01T03:05:51;8.93;;;7.47;;
8572;SDS011;4324;42.012;24.872;2023-04-01T03:08:26;10.13;;;7.83;;
8572;SDS011;4324;42.012;24.872;2023-04-01T03:10:53;11.33;;;7.77;;
8572;SDS011;4324;42.012;24.872;2023-04-01T03:13:21;11.87;;;8.80;;
8572;SDS011;4324;42.012;24.872;2023-04-01T03:15:48;11.60;;;8.20;;
8572;SDS011;4324;42.012;24.872;2023-04-01T03:18:15;9.50;;;8.47;;
8572;SDS011;4324;42.012;24.872;2023-04-01T03:20:42;9.03;;;7.60;;
8572;SDS011;4324;42.012;24.872;2023-04-01T03:23:08;13.77;;;8.30;;
8572;SDS011;4324;42.012;24.872;2023-04-01T03:25:36;9.93;;;7.67;;
8572;SDS011;4324;42.012;24.872;2023-04-01T03:28:03;10.33;;;7.00;;
8572;SDS011;4324;42.012;24.872;2023-04-01T03:30:31;12.97;;;8.80;;
8572;SDS011;4324;42.012;24.872;2023-04-01T03:32:58;11.00;;;8.30;;
8572;SDS011;4324;42.012;24.872;2023-04-01T03:35:25;12.37;;;10.93;;
8572;SDS011;4324;42.012;24.872;2023-04-01T03:37:53;10.33;;;8.87;;
8572;SDS011;4324;42.012;24.872;2023-04-01T03:40:20;12.30;;;9.50;;
8572;SDS011;4324;42.012;24.872;2023-04-01T03:42:47;10.90;;;9.10;;
8572;SDS011;4324;42.012;24.872;2023-04-01T03:45:17;15.13;;;11.60;;
8572;SDS011;4324;42.012;24.872;2023-04-01T03:47:46;16.67;;;11.23;;
8572;SDS011;4324;42.012;24.872;2023-04-01T03:50:13;14.33;;;11.07;;
8572;SDS011;4324;42.012;24.872;2023-04-01T03:52:40;14.00;;;10.30;;
8572;SDS011;4324;42.012;24.872;2023-04-01T03:55:09;15.20;;;11.23;;
8572;SDS011;4324;42.012;24.872;2023-04-01T03:57:37;12.93;;;11.60;;
8572;SDS011;4324;42.012;24.872;2023-04-01T04:00:04;11.90;;;10.23;;
8572;SDS011;4324;42.012;24.872;2023-04-01T04:02:33;13.13;;;9.50;;
8572;SDS011;4324;42.012;24.872;2023-04-01T04:05:02;11.47;;;10.27;;
8572;SDS011;4324;42.012;24.872;2023-04-01T04:07:33;13.73;;;9.47;;
8572;SDS011;4324;42.012;24.872;2023-04-01T04:10:00;15.07;;;9.70;;
8572;SDS011;4324;42.012;24.872;2023-04-01T04:12:27;21.57;;;12.80;;
8572;SDS011;4324;42.012;24.872;2023-04-01T04:14:54;12.47;;;11.13;;
8572;SDS011;4324;42.012;24.872;2023-04-01T04:17:21;12.23;;;10.43;;
8572;SDS011;4324;42.012;24.872;2023-04-01T04:19:48;14.77;;;10.37;;
8572;SDS011;4324;42.012;24.872;2023-04-01T04:22:16;12.50;;;9.53;;
8572;SDS011;4324;42.012;24.872;2023-04-01T04:24:43;11.33;;;9.60;;
8572;SDS011;4324;42.012;24.872;2023-04-01T04:27:10;12.13;;;9.77;;
8572;SDS011;4324;42.012;24.872;2023-04-01T04:29:40;14.27;;;10.17;;
8572;SDS011;4324;42.012;24.872;2023-04-01T04:32:07;14.63;;;10.67;;
8572;SDS011;4324;42.012;24.872;2023-04-01T04:34:33;18.50;;;13.27;;
8572;SDS011;4324;42.012;24.872;2023-04-01T04:37:00;18.50;;;11.47;;
8572;SDS011;4324;42.012;24.872;2023-04-01T04:39:29;18.93;;;10.67;;
8572;SDS011;4324;42.012;24.872;2023-04-01T04:41:56;14.53;;;10.07;;
8572;SDS011;4324;42.012;24.872;2023-04-01T04:44:23;14.97;;;10.13;;
8572;SDS011;4324;42.012;24.872;2023-04-01T04:46:49;16.10;;;11.83;;
8572;SDS011;4324;42.012;24.872;2023-04-01T04:49:16;11.83;;;10.47;;
8572;SDS011;4324;42.012;24.872;2023-04-01T04:51:44;15.50;;;10.80;;
8572;SDS011;4324;42.012;24.872;2023-04-01T04:54:11;23.30;;;16.60;;
8572;SDS011;4324;42.012;24.872;2023-04-01T04:56:39;12.83;;;8.50;;
8572;SDS011;4324;42.012;24.872;2023-04-01T04:59:06;11.77;;;9.37;;
8572;SDS011;4324;42.012;24.872;2023-04-01T05:01:33;12.97;;;8.43;;
8572;SDS011;4324;42.012;24.872;2023-04-01T05:04:00;15.57;;;9.50;;
8572;SDS011;4324;42.012;24.872;2023-04-01T05:06:27;11.73;;;9.73;;
8572;SDS011;4324;42.012;24.872;2023-04-01T05:08:55;14.57;;;11.07;;
8572;SDS011;4324;42.012;24.872;2023-04-01T05:11:22;14.57;;;11.73;;
8572;SDS011;4324;42.012;24.872;2023-04-01T05:13:50;27.40;;;21.63;;
8572;SDS011;4324;42.012;24.872;2023-04-01T05:16:17;31.03;;;25.40;;
8572;SDS011;4324;42.012;24.872;2023-04-01T05:18:45;32.33;;;24.73;;
8572;SDS011;4324;42.012;24.872;2023-04-01T05:21:13;30.07;;;22.10;;
8572;SDS011;4324;42.012;24.872;2023-04-01T05:23:42;21.30;;;17.60;;
8572;SDS011;4324;42.012;24.872;2023-04-01T05:26:09;23.57;;;17.93;;
8572;SDS011;4324;42.012;24.872;2023-04-01T05:28:40;26.60;;;17.90;;
8572;SDS011;4324;42.012;24.872;2023-04-01T05:31:08;20.50;;;16.27;;
8572;SDS011;4324;42.012;24.872;2023-04-01T05:33:35;16.80;;;14.17;;
8572;SDS011;4324;42.012;24.872;2023-04-01T05:36:06;19.80;;;13.47;;
8572;SDS011;4324;42.012;24.872;2023-04-01T05:38:34;17.90;;;12.80;;
8572;SDS011;4324;42.012;24.872;2023-04-01T05:41:02;12.83;;;10.53;;
8572;SDS011;4324;42.012;24.872;2023-04-01T05:43:29;17.70;;;12.20;;
8572;SDS011;4324;42.012;24.872;2023-04-01T05:45:56;13.60;;;12.20;;
8572;SDS011;4324;42.012;24.872;2023-04-01T05:48:24;13.63;;;11.00;;
8572;SDS011;4324;42.012;24.872;2023-04-01T05:50:51;17.90;;;10.93;;
8572;SDS011;4324;42.012;24.872;2023-04-01T05:53:19;13.87;;;11.07;;
8572;SDS011;4324;42.012;24.872;2023-04-01T05:55:47;14.67;;;11.40;;
8572;SDS011;4324;42.012;24.872;2023-04-01T05:58:14;14.33;;;11.53;;
8572;SDS011;4324;42.012;24.872;2023-04-01T06:00:41;16.50;;;12.93;;
8572;SDS011;4324;42.012;24.872;2023-04-01T06:03:08;17.20;;;12.57;;
8572;SDS011;4324;42.012;24.872;2023-04-01T06:05:46;20.90;;;15.63;;
8572;SDS011;4324;42.012;24.872;2023-04-01T06:08:15;18.67;;;12.97;;
8572;SDS011;4324;42.012;24.872;2023-04-01T06:10:50;24.17;;;18.80;;
8572;SDS011;4324;42.012;24.872;2023-04-01T06:13:27;24.50;;;18.07;;
8572;SDS011;4324;42.012;24.872;2023-04-01T06:16:07;30.77;;;21.53;;
8572;SDS011;4324;42.012;24.872;2023-04-01T06:18:52;47.17;;;42.53;;
8572;SDS011;4324;42.012;24.872;2023-04-01T06:21:37;80.10;;;65.50;;
8572;SDS011;4324;42.012;24.872;2023-04-01T06:27:07;34.03;;;26.93;;
8572;SDS011;4324;42.012;24.872;2023-04-01T06:29:48;32.63;;;25.80;;
8572;SDS011;4324;42.012;24.872;2023-04-01T06:32:23;19.87;;;16.97;;
8572;SDS011;4324;42.012;24.872;2023-04-01T06:38:02;17.17;;;13.13;;
8572;SDS011;4324;42.012;24.872;2023-04-01T06:40:43;26.03;;;20.97;;
8572;SDS011;4324;42.012;24.872;2023-04-01T06:43:22;24.67;;;19.63;;
8572;SDS011;4324;42.012;24.872;2023-04-01T06:46:05;42.97;;;32.23;;
8572;SDS011;4324;42.012;24.872;2023-04-01T06:48:53;63.43;;;48.73;;
8572;SDS011;4324;42.012;24.872;2023-04-01T06:51:32;41.87;;;33.37;;
8572;SDS011;4324;42.012;24.872;2023-04-01T06:54:11;18.97;;;15.40;;
8572;SDS011;4324;42.012;24.872;2023-04-01T06:56:44;12.23;;;9.10;;
8572;SDS011;4324;42.012;24.872;2023-04-01T06:59:15;9.67;;;8.00;;
8572;SDS011;4324;42.012;24.872;2023-04-01T07:01:45;15.73;;;14.23;;
8572;SDS011;4324;42.012;24.872;2023-04-01T07:04:14;12.57;;;11.37;;
8572;SDS011;4324;42.012;24.872;2023-04-01T07:06:46;21.27;;;18.40;;
8572;SDS011;4324;42.012;24.872;2023-04-01T07:09:20;8.80;;;7.40;;
8572;SDS011;4324;42.012;24.872;2023-04-01T07:11:52;12.80;;;9.27;;
8572;SDS011;4324;42.012;24.872;2023-04-01T07:14:24;7.60;;;6.40;;
8572;SDS011;4324;42.012;24.872;2023-04-01T07:16:56;8.90;;;7.13;;
8572;SDS011;4324;42.012;24.872;2023-04-01T07:19:30;10.23;;;6.57;;
8572;SDS011;4324;42.012;24.872;2023-04-01T07:22:03;8.37;;;7.03;;
8572;SDS011;4324;42.012;24.872;2023-04-01T07:24:39;7.30;;;6.60;;
8572;SDS011;4324;42.012;24.872;2023-04-01T07:27:09;11.23;;;8.93;;
8572;SDS011;4324;42.012;24.872;2023-04-01T07:29:38;8.60;;;7.70;;
8572;SDS011;4324;42.012;24.872;2023-04-01T07:32:16;10.63;;;8.90;;
8572;SDS011;4324;42.012;24.872;2023-04-01T07:35:01;15.87;;;11.43;;
8572;SDS011;4324;42.012;24.872;2023-04-01T07:37:37;8.77;;;7.20;;
8572;SDS011;4324;42.012;24.872;2023-04-01T07:40:14;8.90;;;7.00;;
8572;SDS011;4324;42.012;24.872;2023-04-01T07:42:55;8.40;;;6.90;;
8572;SDS011;4324;42.012;24.872;2023-04-01T07:45:33;11.97;;;7.37;;
8572;SDS011;4324;42.012;24.872;2023-04-01T07:48:06;12.73;;;8.23;;
8572;SDS011;4324;42.012;24.872;2023-04-01T07:50:46;9.87;;;7.13;;
8572;SDS011;4324;42.012;24.872;2023-04-01T07:53:22;8.97;;;8.07;;
8572;SDS011;4324;42.012;24.872;2023-04-01T07:56:00;11.90;;;8.90;;
8572;SDS011;4324;42.012;24.872;2023-04-01T07:58:33;17.57;;;11.63;;
8572;SDS011;4324;42.012;24.872;2023-04-01T08:01:10;15.53;;;10.60;;
8572;SDS011;4324;42.012;24.872;2023-04-01T08:03:55;14.53;;;10.20;;
8572;SDS011;4324;42.012;24.872;2023-04-01T08:06:37;14.70;;;11.67;;
8572;SDS011;4324;42.012;24.872;2023-04-01T08:09:12;12.03;;;10.10;;
8572;SDS011;4324;42.012;24.872;2023-04-01T08:11:54;11.43;;;9.93;;
8572;SDS011;4324;42.012;24.872;2023-04-01T08:14:31;8.37;;;7.00;;
8572;SDS011;4324;42.012;24.872;2023-04-01T08:17:02;8.80;;;7.27;;
8572;SDS011;4324;42.012;24.872;2023-04-01T08:19:38;14.13;;;10.73;;
8572;SDS011;4324;42.012;24.872;2023-04-01T08:22:22;9.40;;;6.77;;
8572;SDS011;4324;42.012;24.872;2023-04-01T08:24:53;9.43;;;7.33;;
8572;SDS011;4324;42.012;24.872;2023-04-01T08:27:28;10.03;;;7.30;;
8572;SDS011;4324;42.012;24.872;2023-04-01T08:30:06;10.70;;;8.00;;
8572;SDS011;4324;42.012;24.872;2023-04-01T08:32:47;10.90;;;9.03;;
8572;SDS011;4324;42.012;24.872;2023-04-01T08:35:20;9.90;;;7.50;;
8572;SDS011;4324;42.012;24.872;2023-04-01T08:37:52;10.80;;;8.53;;
8572;SDS011;4324;42.012;24.872;2023-04-01T08:40:33;14.83;;;9.10;;
8572;SDS011;4324;42.012;24.872;2023-04-01T08:43:16;8.80;;;7.97;;
8572;SDS011;4324;42.012;24.872;2023-04-01T08:45:56;14.00;;;8.73;;
8572;SDS011;4324;42.012;24.872;2023-04-01T08:48:45;15.03;;;9.33;;
8572;SDS011;4324;42.012;24.872;2023-04-01T08:54:38;15.60;;;8.40;;
8572;SDS011;4324;42.012;24.872;2023-04-01T08:57:21;26.10;;;21.07;;
8572;SDS011;4324;42.012;24.872;2023-04-01T09:00:10;11.27;;;10.07;;
8572;SDS011;4324;42.012;24.872;2023-04-01T09:03:00;20.57;;;17.20;;
8572;SDS011;4324;42.012;24.872;2023-04-01T09:06:03;14.73;;;11.40;;
8572;SDS011;4324;42.012;24.872;2023-04-01T09:08:53;10.57;;;7.43;;
8572;SDS011;4324;42.012;24.872;2023-04-01T09:11:52;11.47;;;9.37;;
8572;SDS011;4324;42.012;24.872;2023-04-01T09:20:52;8.73;;;6.67;;
8572;SDS011;4324;42.012;24.872;2023-04-01T09:23:35;8.83;;;7.20;;
8572;SDS011;4324;42.012;24.872;2023-04-01T09:26:25;9.30;;;7.20;;
8572;SDS011;4324;42.012;24.872;2023-04-01T09:29:15;16.80;;;12.43;;
8572;SDS011;4324;42.012;24.872;2023-04-01T09:31:59;8.83;;;7.93;;
8572;SDS011;4324;42.012;24.872;2023-04-01T09:34:51;12.50;;;9.93;;
8572;SDS011;4324;42.012;24.872;2023-04-01T09:37:25;9.53;;;7.97;;
8572;SDS011;4324;42.012;24.872;2023-04-01T09:40:03;10.57;;;7.83;;
8572;SDS011;4324;42.012;24.872;2023-04-01T09:42:43;9.10;;;7.23;;
8572;SDS011;4324;42.012;24.872;2023-04-01T09:45:19;11.07;;;7.83;;
8572;SDS011;4324;42.012;24.872;2023-04-01T09:48:09;8.77;;;7.83;;
8572;SDS011;4324;42.012;24.872;2023-04-01T09:50:47;13.43;;;12.00;;
8572;SDS011;4324;42.012;24.872;2023-04-01T09:53:30;9.67;;;8.30;;
8572;SDS011;4324;42.012;24.872;2023-04-01T09:56:21;9.80;;;8.80;;
8572;SDS011;4324;42.012;24.872;2023-04-01T09:59:04;9.57;;;8.67;;
8572;SDS011;4324;42.012;24.872;2023-04-01T10:01:57;10.70;;;9.00;;
8572;SDS011;4324;42.012;24.872;2023-04-01T10:08:21;11.10;;;8.37;;
8572;SDS011;4324;42.012;24.872;2023-04-01T10:11:17;11.07;;;7.87;;
8572;SDS011;4324;42.012;24.872;2023-04-01T10:23:58;11.97;;;8.40;;
8572;SDS011;4324;42.012;24.872;2023-04-01T10:26:47;10.10;;;7.23;;
8572;SDS011;4324;42.012;24.872;2023-04-01T10:29:48;9.80;;;7.50;;
8572;SDS011;4324;42.012;24.872;2023-04-01T10:32:37;9.53;;;7.10;;
8572;SDS011;4324;42.012;24.872;2023-04-01T10:38:51;8.40;;;7.00;;
8572;SDS011;4324;42.012;24.872;2023-04-01T10:44:58;8.23;;;6.63;;
8572;SDS011;4324;42.012;24.872;2023-04-01T10:51:08;6.20;;;5.60;;
8572;SDS011;4324;42.012;24.872;2023-04-01T10:56:55;9.37;;;6.30;;
8572;SDS011;4324;42.012;24.872;2023-04-01T10:59:43;8.10;;;6.00;;
8572;SDS011;4324;42.012;24.872;2023-04-01T11:15:43;6.57;;;5.93;;
8572;SDS011;4324;42.012;24.872;2023-04-01T11:22:07;7.00;;;6.30;;
8572;SDS011;4324;42.012;24.872;2023-04-01T11:28:47;9.43;;;6.90;;
8572;SDS011;4324;42.012;24.872;2023-04-01T11:31:11;10.30;;;7.73;;
8572;SDS011;4324;42.012;24.872;2023-04-01T11:33:54;7.83;;;7.03;;
8572;SDS011;4324;42.012;24.872;2023-04-01T11:36:32;7.77;;;7.00;;
8572;SDS011;4324;42.012;24.872;2023-04-01T11:39:08;8.27;;;7.00;;
8572;SDS011;4324;42.012;24.872;2023-04-01T11:41:47;8.80;;;7.00;;
8572;SDS011;4324;42.012;24.872;2023-04-01T11:44:23;8.33;;;6.97;;
8572;SDS011;4324;42.012;24.872;2023-04-01T11:49:57;10.30;;;7.30;;
8572;SDS011;4324;42.012;24.872;2023-04-01T11:52:43;6.33;;;5.83;;
8572;SDS011;4324;42.012;24.872;2023-04-01T11:55:39;7.63;;;6.23;;
8572;SDS011;4324;42.012;24.872;2023-04-01T11:58:24;7.47;;;6.00;;
8572;SDS011;4324;42.012;24.872;2023-04-01T12:07:01;9.73;;;6.83;;
8572;SDS011;4324;42.012;24.872;2023-04-01T12:09:34;8.63;;;7.57;;
8572;SDS011;4324;42.012;24.872;2023-04-01T12:12:12;8.93;;;6.80;;
8572;SDS011;4324;42.012;24.872;2023-04-01T12:14:49;7.73;;;6.93;;
8572;SDS011;4324;42.012;24.872;2023-04-01T12:17:30;8.70;;;6.80;;
8572;SDS011;4324;42.012;24.872;2023-04-01T12:20:20;10.07;;;6.47;;
8572;SDS011;4324;42.012;24.872;2023-04-01T12:22:59;6.50;;;5.90;;
8572;SDS011;4324;42.012;24.872;2023-04-01T12:25:52;8.27;;;6.07;;
8572;SDS011;4324;42.012;24.872;2023-04-01T12:28:29;8.40;;;6.87;;
8572;SDS011;4324;42.012;24.872;2023-04-01T12:31:13;7.47;;;6.67;;
8572;SDS011;4324;42.012;24.872;2023-04-01T12:34:00;15.07;;;9.90;;
8572;SDS011;4324;42.012;24.872;2023-04-01T12:36:58;13.10;;;10.07;;
8572;SDS011;4324;42.012;24.872;2023-04-01T12:39:47;12.10;;;8.20;;
8572;SDS011;4324;42.012;24.872;2023-04-01T12:45:32;9.93;;;8.80;;
8572;SDS011;4324;42.012;24.872;2023-04-01T12:54:17;13.93;;;8.63;;
8572;SDS011;4324;42.012;24.872;2023-04-01T12:57:13;9.67;;;7.63;;
8572;SDS011;4324;42.012;24.872;2023-04-01T12:59:58;11.47;;;8.63;;
8572;SDS011;4324;42.012;24.872;2023-04-01T13:02:40;9.90;;;7.73;;
8572;SDS011;4324;42.012;24.872;2023-04-01T13:08:24;11.07;;;7.43;;
8572;SDS011;4324;42.012;24.872;2023-04-01T13:11:13;9.13;;;7.80;;
8572;SDS011;4324;42.012;24.872;2023-04-01T13:13:56;10.27;;;7.80;;
8572;SDS011;4324;42.012;24.872;2023-04-01T13:16:48;11.77;;;7.80;;
8572;SDS011;4324;42.012;24.872;2023-04-01T13:19:24;11.73;;;7.47;;
8572;SDS011;4324;42.012;24.872;2023-04-01T13:21:58;8.70;;;7.47;;
8572;SDS011;4324;42.012;24.872;2023-04-01T13:24:43;8.77;;;7.80;;
8572;SDS011;4324;42.012;24.872;2023-04-01T13:27:20;12.63;;;6.90;;
8572;SDS011;4324;42.012;24.872;2023-04-01T13:30:00;9.70;;;7.17;;
8572;SDS011;4324;42.012;24.872;2023-04-01T13:32:39;9.40;;;7.83;;
8572;SDS011;4324;42.012;24.872;2023-04-01T13:35:26;14.33;;;7.73;;
8572;SDS011;4324;42.012;24.872;2023-04-01T13:38:23;10.40;;;7.67;;
8572;SDS011;4324;42.012;24.872;2023-04-01T13:41:08;8.77;;;6.83;;
8572;SDS011;4324;42.012;24.872;2023-04-01T13:43:43;11.67;;;7.13;;
8572;SDS011;4324;42.012;24.872;2023-04-01T13:52:46;25.00;;;10.77;;
8572;SDS011;4324;42.012;24.872;2023-04-01T13:55:37;28.97;;;10.30;;
8572;SDS011;4324;42.012;24.872;2023-04-01T13:58:21;20.17;;;9.40;;
8572;SDS011;4324;42.012;24.872;2023-04-01T14:01:06;21.50;;;8.17;;
8572;SDS011;4324;42.012;24.872;2023-04-01T14:03:44;21.13;;;9.93;;
8572;SDS011;4324;42.012;24.872;2023-04-01T14:06:31;16.53;;;9.53;;
8572;SDS011;4324;42.012;24.872;2023-04-01T14:09:11;9.90;;;6.93;;
8572;SDS011;4324;42.012;24.872;2023-04-01T14:11:53;6.27;;;5.70;;
8572;SDS011;4324;42.012;24.872;2023-04-01T14:14:31;10.73;;;6.00;;
8572;SDS011;4324;42.012;24.872;2023-04-01T14:17:16;8.63;;;7.63;;
8572;SDS011;4324;42.012;24.872;2023-04-01T14:20:10;7.47;;;6.27;;
8572;SDS011;4324;42.012;24.872;2023-04-01T14:23:46;12.53;;;7.90;;
8572;SDS011;4324;42.012;24.872;2023-04-01T14:29:15;7.00;;;4.90;;
8572;SDS011;4324;42.012;24.872;2023-04-01T14:31:57;8.30;;;7.20;;
8572;SDS011;4324;42.012;24.872;2023-04-01T14:34:40;9.53;;;7.43;;
8572;SDS011;4324;42.012;24.872;2023-04-01T14:40:33;3.07;;;2.77;;
8572;SDS011;4324;42.012;24.872;2023-04-01T14:43:27;7.17;;;6.47;;
8572;SDS011;4324;42.012;24.872;2023-04-01T14:46:14;6.50;;;5.00;;
8572;SDS011;4324;42.012;24.872;2023-04-01T14:48:56;6.63;;;6.03;;
8572;SDS011;4324;42.012;24.872;2023-04-01T14:51:30;5.33;;;4.83;;
8572;SDS011;4324;42.012;24.872;2023-04-01T14:54:03;8.60;;;6.77;;
8572;SDS011;4324;42.012;24.872;2023-04-01T14:56:36;5.97;;;5.37;;
8572;SDS011;4324;42.012;24.872;2023-04-01T14:59:07;7.53;;;5.83;;
8572;SDS011;4324;42.012;24.872;2023-04-01T15:01:38;7.47;;;5.70;;
8572;SDS011;4324;42.012;24.872;2023-04-01T15:04:18;7.07;;;6.30;;
8572;SDS011;4324;42.012;24.872;2023-04-01T15:10:02;6.20;;;4.40;;
8572;SDS011;4324;42.012;24.872;2023-04-01T15:12:40;6.40;;;4.60;;
8572;SDS011;4324;42.012;24.872;2023-04-01T15:15:16;7.37;;;5.97;;
8572;SDS011;4324;42.012;24.872;2023-04-01T15:17:55;5.73;;;4.80;;
8572;SDS011;4324;42.012;24.872;2023-04-01T15:20:33;6.63;;;5.47;;
8572;SDS011;4324;42.012;24.872;2023-04-01T15:23:27;5.83;;;3.83;;
8572;SDS011;4324;42.012;24.872;2023-04-01T15:26:19;6.80;;;5.63;;
8572;SDS011;4324;42.012;24.872;2023-04-01T15:29:55;15.17;;;12.07;;
8572;SDS011;4324;42.012;24.872;2023-04-01T15:32:51;7.63;;;6.00;;
8572;SDS011;4324;42.012;24.872;2023-04-01T15:35:34;7.70;;;5.10;;
8572;SDS011;4324;42.012;24.872;2023-04-01T15:38:10;6.77;;;5.80;;
8572;SDS011;4324;42.012;24.872;2023-04-01T15:40:50;6.80;;;6.10;;
8572;SDS011;4324;42.012;24.872;2023-04-01T15:43:27;7.67;;;5.80;;
8572;SDS011;4324;42.012;24.872;2023-04-01T15:46:09;6.00;;;5.40;;
8572;SDS011;4324;42.012;24.872;2023-04-01T15:48:48;6.13;;;4.60;;
8572;SDS011;4324;42.012;24.872;2023-04-01T15:51:29;9.97;;;6.60;;
8572;SDS011;4324;42.012;24.872;2023-04-01T15:54:24;18.63;;;14.63;;
8572;SDS011;4324;42.012;24.872;2023-04-01T15:57:02;13.13;;;9.97;;
8572;SDS011;4324;42.012;24.872;2023-04-01T15:59:43;6.07;;;5.27;;
8572;SDS011;4324;42.012;24.872;2023-04-01T16:02:21;6.00;;;5.40;;
8572;SDS011;4324;42.012;24.872;2023-04-01T16:04:57;9.90;;;6.10;;
8572;SDS011;4324;42.012;24.872;2023-04-01T16:13:30;8.33;;;5.67;;
8572;SDS011;4324;42.012;24.872;2023-04-01T16:16:13;7.73;;;5.20;;
8572;SDS011;4324;42.012;24.872;2023-04-01T16:18:52;7.03;;;5.03;;
8572;SDS011;4324;42.012;24.872;2023-04-01T16:21:34;7.50;;;5.40;;
8572;SDS011;4324;42.012;24.872;2023-04-01T16:24:08;7.10;;;5.20;;
8572;SDS011;4324;42.012;24.872;2023-04-01T16:26:44;7.00;;;5.50;;
8572;SDS011;4324;42.012;24.872;2023-04-01T16:29:19;6.77;;;5.50;;
8572;SDS011;4324;42.012;24.872;2023-04-01T16:31:55;6.60;;;5.30;;
8572;SDS011;4324;42.012;24.872;2023-04-01T16:34:41;9.23;;;6.00;;
8572;SDS011;4324;42.012;24.872;2023-04-01T16:37:15;9.03;;;6.73;;
8572;SDS011;4324;42.012;24.872;2023-04-01T16:39:47;8.77;;;6.30;;
8572;SDS011;4324;42.012;24.872;2023-04-01T16:42:24;8.03;;;6.40;;
8572;SDS011;4324;42.012;24.872;2023-04-01T16:45:06;8.97;;;6.50;;
8572;SDS011;4324;42.012;24.872;2023-04-01T16:47:46;8.10;;;6.80;;
8572;SDS011;4324;42.012;24.872;2023-04-01T16:50:18;8.40;;;7.53;;
8572;SDS011;4324;42.012;24.872;2023-04-01T16:52:53;9.63;;;7.83;;
8572;SDS011;4324;42.012;24.872;2023-04-01T16:55:34;12.47;;;8.70;;
8572;SDS011;4324;42.012;24.872;2023-04-01T16:58:02;10.67;;;7.07;;
8572;SDS011;4324;42.012;24.872;2023-04-01T17:00:35;6.67;;;4.53;;
8572;SDS011;4324;42.012;24.872;2023-04-01T17:03:08;4.73;;;3.80;;
8572;SDS011;4324;42.012;24.872;2023-04-01T17:05:49;4.40;;;3.70;;
8572;SDS011;4324;42.012;24.872;2023-04-01T17:08:27;4.83;;;4.30;;
8572;SDS011;4324;42.012;24.872;2023-04-01T17:11:06;4.40;;;3.43;;
8572;SDS011;4324;42.012;24.872;2023-04-01T17:13:46;5.30;;;3.47;;
8572;SDS011;4324;42.012;24.872;2023-04-01T17:16:28;6.13;;;4.20;;
8572;SDS011;4324;42.012;24.872;2023-04-01T17:19:19;4.47;;;3.70;;
8572;SDS011;4324;42.012;24.872;2023-04-01T17:22:02;5.87;;;3.80;;
8572;SDS011;4324;42.012;24.872;2023-04-01T17:24:38;5.20;;;4.03;;
8572;SDS011;4324;42.012;24.872;2023-04-01T17:27:22;4.77;;;4.17;;
8572;SDS011;4324;42.012;24.872;2023-04-01T17:30:22;7.10;;;4.23;;
8572;SDS011;4324;42.012;24.872;2023-04-01T17:33:03;4.07;;;3.63;;
8572;SDS011;4324;42.012;24.872;2023-04-01T17:35:56;5.23;;;3.50;;
8572;SDS011;4324;42.012;24.872;2023-04-01T17:38:32;3.00;;;2.60;;